Time;durP1;ratioP1;P1;durP2;ratioP2;P2;SDS_P1;SDS_P2;PMS_P1;PMS_P2;Temp;Humidity;BMP_temperature;BMP_pressure;BME280_temperature;BME280_humidity;BME280_pressure;Samples;Min_cycle;Max_cycle;Signal;HPM_P1;HPM_P2
2022/02/22 00:04:59;;;;;;;20.58;5.63;;;;;;;2.02;83.64;100014.34;8539968;33;22096;-73
2022/02/22 00:10:09;;;;;;;16.33;3.40;;;;;;;2.25;83.42;100018.47;8539470;33;20585;-73
2022/02/22 00:15:13;;;;;;;13.23;4.22;;;;;;;2.57;82.98;100007.97;8539758;33;20266;-75
2022/02/22 00:20:19;;;;;;;22.33;6.55;;;;;;;2.12;82.79;100015.59;8543743;33;21261;-74
2022/02/22 00:25:22;;;;;;;21.15;6.20;;;;;;;2.52;82.57;100029.38;8541229;33;20475;-75
2022/02/22 00:30:26;;;;;;;31.10;5.82;;;;;;;2.27;81.99;100034.28;8540957;33;20480;-76
2022/02/22 00:35:29;;;;;;;14.65;4.47;;;;;;;2.39;80.75;100050.41;8542071;33;20631;-74
2022/02/22 00:40:33;;;;;;;19.35;5.60;;;;;;;2.58;81.10;100058.28;8541446;33;20985;-74
2022/02/22 00:45:37;;;;;;;30.80;5.40;;;;;;;2.64;80.42;100067.72;8520571;33;20494;-75
2022/02/22 00:50:40;;;;;;;16.63;4.72;;;;;;;2.47;79.63;100107.47;8548825;33;20405;-74
2022/02/22 00:55:43;;;;;;;12.68;4.25;;;;;;;2.75;80.89;100098.97;8577906;33;21132;-74
2022/02/22 01:00:48;;;;;;;25.67;6.10;;;;;;;2.75;80.55;100102.47;8551779;33;20441;-74
2022/02/22 01:05:51;;;;;;;22.70;5.95;;;;;;;3.01;81.23;100119.63;8550601;33;20541;-76
2022/02/22 01:10:54;;;;;;;19.45;6.05;;;;;;;3.01;81.55;100134.72;8547642;33;20586;-76
2022/02/22 01:15:58;;;;;;;8.35;3.95;;;;;;;2.89;82.55;100143.34;8522654;33;21548;-76
2022/02/22 01:21:01;;;;;;;12.00;3.65;;;;;;;2.78;83.69;100147.41;8547005;33;20499;-76
2022/02/22 01:26:05;;;;;;;11.80;4.32;;;;;;;2.77;84.96;100137.75;8546744;33;20488;-76
2022/02/22 01:31:09;;;;;;;18.02;5.88;;;;;;;1.97;85.57;100117.03;8546530;33;20148;-75
2022/02/22 01:36:13;;;;;;;22.38;6.57;;;;;;;2.44;84.55;100150.94;8546462;33;20496;-75
2022/02/22 01:41:16;;;;;;;26.98;7.00;;;;;;;2.64;84.58;100165.00;8545906;33;20206;-76
2022/02/22 01:46:20;;;;;;;23.63;6.00;;;;;;;3.10;84.66;100200.59;8542477;33;21602;-76
2022/02/22 01:51:23;;;;;;;8.85;3.08;;;;;;;2.83;84.19;100214.34;8542872;33;21060;-76
2022/02/22 01:56:26;;;;;;;9.10;3.08;;;;;;;2.01;82.75;100213.16;8549386;33;20423;-77
2022/02/22 02:01:31;;;;;;;5.50;2.38;;;;;;;1.48;84.95;100218.25;8561738;33;20433;-77
2022/02/22 02:06:34;;;;;;;6.68;2.10;;;;;;;1.49;86.29;100204.06;8553975;33;20593;-78
2022/02/22 02:11:45;;;;;;;17.83;3.72;;;;;;;1.27;87.28;100214.78;8549336;33;20415;-77
2022/02/22 02:16:50;;;;;;;12.30;3.42;;;;;;;0.88;88.35;100230.66;8545423;33;21817;-77
2022/02/22 02:21:58;;;;;;;16.23;3.87;;;;;;;0.92;89.39;100234.88;8545921;33;20191;-77
2022/02/22 02:27:01;;;;;;;19.45;5.53;;;;;;;1.25;89.00;100229.88;8543142;33;20136;-77
2022/02/22 02:32:05;;;;;;;27.20;5.43;;;;;;;1.52;87.53;100234.84;8545079;33;20183;-76
2022/02/22 02:37:09;;;;;;;25.08;6.32;;;;;;;1.71;86.25;100243.66;8546021;33;20148;-75
2022/02/22 02:42:16;;;;;;;36.47;7.22;;;;;;;1.84;85.16;100248.41;8544047;33;20543;-75
2022/02/22 02:47:19;;;;;;;14.57;4.28;;;;;;;2.02;84.28;100252.81;8541952;33;20479;-76
2022/02/22 02:52:24;;;;;;;24.23;6.70;;;;;;;1.90;84.67;100253.41;8543522;33;20411;-74
2022/02/22 02:57:27;;;;;;;26.15;7.63;;;;;;;1.72;83.66;100234.78;8540817;33;20209;-74
2022/02/22 03:02:30;;;;;;;22.65;5.88;;;;;;;2.05;83.01;100246.50;8547981;33;20426;-72
2022/02/22 03:07:35;;;;;;;18.98;4.80;;;;;;;1.77;82.89;100253.09;8545894;33;20455;-76
2022/02/22 03:12:38;;;;;;;18.95;4.80;;;;;;;1.85;82.71;100269.50;8520134;33;20140;-74
2022/02/22 03:17:40;;;;;;;31.30;5.63;;;;;;;1.69;83.14;100273.78;8538557;33;20409;-76
2022/02/22 03:22:45;;;;;;;14.07;4.13;;;;;;;1.85;83.16;100282.75;8515322;33;20449;-76
2022/02/22 03:27:48;;;;;;;21.30;5.93;;;;;;;2.02;83.17;100295.19;8538481;33;20667;-76
2022/02/22 03:32:52;;;;;;;31.88;6.53;;;;;;;1.85;82.94;100303.94;8538935;33;20238;-76
2022/02/22 03:37:57;;;;;;;22.23;6.53;;;;;;;1.85;83.59;100290.69;8545081;33;20464;-75
2022/02/22 03:43:00;;;;;;;22.55;5.82;;;;;;;1.63;84.40;100308.50;8543976;33;20147;-75
2022/02/22 03:48:05;;;;;;;31.42;7.82;;;;;;;1.87;83.52;100298.59;8543826;33;20172;-75
2022/02/22 03:53:10;;;;;;;29.30;6.80;;;;;;;1.98;83.23;100306.03;8543106;33;20397;-75
2022/02/22 03:58:14;;;;;;;23.95;6.05;;;;;;;1.72;83.71;100306.28;8520428;33;20477;-76
2022/02/22 04:03:18;;;;;;;22.15;5.18;;;;;;;1.70;83.93;100325.81;8544034;33;20543;-76
2022/02/22 04:08:23;;;;;;;17.52;5.18;;;;;;;1.71;84.12;100339.00;8542557;33;20158;-76
2022/02/22 04:13:26;;;;;;;20.75;5.07;;;;;;;1.72;84.24;100345.16;8518336;33;20562;-75
2022/02/22 04:18:29;;;;;;;16.40;5.28;;;;;;;1.85;83.70;100351.63;8541825;33;20140;-72
2022/02/22 04:23:33;;;;;;;18.50;5.57;;;;;;;1.63;84.37;100350.88;8518724;33;21450;-76
2022/02/22 04:28:36;;;;;;;22.10;5.20;;;;;;;1.80;84.04;100356.25;8548530;33;21374;-74
2022/02/22 04:33:39;;;;;;;27.10;6.72;;;;;;;1.68;83.47;100370.06;8550538;33;20417;-74
2022/02/22 04:38:44;;;;;;;28.40;5.65;;;;;;;1.57;84.16;100381.13;8521848;33;20434;-74
2022/02/22 04:43:46;;;;;;;23.48;5.75;;;;;;;1.74;83.68;100385.69;8543673;33;20409;-74
2022/02/22 04:48:50;;;;;;;23.00;6.30;;;;;;;1.87;82.67;100397.44;8541886;33;20902;-73
2022/02/22 04:53:54;;;;;;;7.95;3.47;;;;;;;1.46;82.97;100402.75;8546458;33;20604;-74
2022/02/22 04:58:57;;;;;;;21.20;4.45;;;;;;;1.46;83.60;100405.41;8547215;33;20547;-72
2022/02/22 05:04:00;;;;;;;21.48;5.20;;;;;;;1.58;82.86;100406.66;8544850;33;20202;-73
2022/02/22 05:09:05;;;;;;;25.42;5.55;;;;;;;1.48;82.96;100418.56;8546961;33;20502;-74
2022/02/22 05:14:08;;;;;;;24.00;4.82;;;;;;;1.82;82.67;100425.94;8546949;33;20139;-73
2022/02/22 05:19:11;;;;;;;14.52;4.20;;;;;;;1.35;84.01;100430.63;8547227;33;20191;-73
2022/02/22 05:24:15;;;;;;;26.60;6.20;;;;;;;1.61;83.27;100424.22;8518053;33;20159;-74
2022/02/22 05:29:18;;;;;;;16.00;5.05;;;;;;;1.56;83.95;100415.59;8543927;33;20205;-74
2022/02/22 05:34:21;;;;;;;16.73;4.40;;;;;;;1.24;85.08;100401.97;8545167;33;20784;-74
2022/02/22 05:39:25;;;;;;;18.43;5.13;;;;;;;1.53;84.47;100427.19;8542900;33;20186;-74
2022/02/22 05:44:28;;;;;;;17.45;5.18;;;;;;;1.30;85.48;100425.53;8543284;33;21095;-74
2022/02/22 05:49:31;;;;;;;21.38;3.92;;;;;;;1.29;85.92;100426.47;8547095;33;20909;-75
2022/02/22 05:54:35;;;;;;;14.90;5.05;;;;;;;1.33;86.57;100427.19;8549866;33;20408;-74
2022/02/22 05:59:38;;;;;;;13.32;4.88;;;;;;;1.39;86.88;100438.34;8542264;33;20507;-74
2022/02/22 06:04:42;;;;;;;20.00;4.72;;;;;;;1.66;85.89;100460.16;8540262;33;20621;-74
2022/02/22 06:09:46;;;;;;;25.58;5.22;;;;;;;1.31;86.71;100452.84;8541330;33;20263;-74
2022/02/22 06:14:49;;;;;;;33.50;7.82;;;;;;;1.45;86.26;100471.66;8540203;33;20144;-74
2022/02/22 06:19:57;;;;;;;8.68;3.05;;;;;;;1.51;86.15;100471.41;8536483;33;20426;-74
2022/02/22 06:25:01;;;;;;;24.33;7.40;;;;;;;1.44;86.79;100488.47;8534096;33;20152;-74
2022/02/22 06:30:06;;;;;;;27.88;6.05;;;;;;;1.54;86.41;100511.00;8531733;33;20470;-74
2022/02/22 06:35:10;;;;;;;16.77;4.55;;;;;;;1.49;85.91;100503.25;8532153;33;20140;-74
2022/02/22 06:40:15;;;;;;;15.95;4.72;;;;;;;1.56;86.07;100521.50;8534123;33;20571;-74
2022/02/22 06:45:18;;;;;;;15.15;4.25;;;;;;;1.63;85.67;100515.03;8554433;33;20169;-74
2022/02/22 06:50:22;;;;;;;23.05;5.63;;;;;;;1.63;86.04;100520.34;8559912;33;20206;-74
2022/02/22 06:55:27;;;;;;;14.80;5.00;;;;;;;1.81;85.45;100518.69;8543301;33;20413;-74
2022/02/22 07:00:32;;;;;;;15.25;4.07;;;;;;;1.72;85.80;100530.53;8544713;33;20544;-74
2022/02/22 07:05:35;;;;;;;18.02;4.90;;;;;;;1.68;85.65;100526.31;8546800;33;20188;-74
2022/02/22 07:10:39;;;;;;;14.85;5.10;;;;;;;1.79;85.75;100525.88;8557682;33;20160;-74
2022/02/22 07:15:44;;;;;;;7.88;3.72;;;;;;;2.20;85.15;100533.81;8533198;33;20300;-74
2022/02/22 07:20:47;;;;;;;10.63;3.88;;;;;;;1.93;85.17;100545.53;8545900;33;20178;-74
2022/02/22 07:25:50;;;;;;;12.18;3.63;;;;;;;2.29;84.70;100551.97;8546571;33;21590;-74
2022/02/22 07:30:54;;;;;;;21.45;6.53;;;;;;;2.55;84.21;100553.47;8525966;33;20630;-74
2022/02/22 07:35:57;;;;;;;18.52;5.05;;;;;;;2.51;84.45;100565.13;8546079;33;20478;-72
2022/02/22 07:41:00;;;;;;;17.95;4.85;;;;;;;2.67;84.04;100568.00;8548906;33;20959;-72
2022/02/22 07:46:05;;;;;;;23.23;5.30;;;;;;;2.79;82.92;100578.03;8547711;33;20471;-72
2022/02/22 07:51:08;;;;;;;19.02;6.00;;;;;;;3.00;82.23;100579.69;8521192;33;20239;-73
2022/02/22 07:56:11;;;;;;;16.08;4.53;;;;;;;2.82;82.76;100594.66;8541630;33;20755;-73
2022/02/22 08:01:15;;;;;;;22.45;5.55;;;;;;;3.19;81.80;100585.00;8540997;33;20420;-73
2022/02/22 08:06:19;;;;;;;24.92;6.88;;;;;;;3.13;81.01;100590.63;8515922;33;20152;-74
2022/02/22 08:11:29;;;;;;;17.02;4.75;;;;;;;3.24;81.50;100587.47;8542799;33;20188;-72
2022/02/22 08:16:34;;;;;;;18.05;4.65;;;;;;;3.02;81.96;100591.13;8541242;33;20495;-72
2022/02/22 08:21:37;;;;;;;14.70;3.60;;;;;;;3.01;81.98;100577.91;8541798;33;20232;-74
2022/02/22 08:26:40;;;;;;;11.63;4.00;;;;;;;3.01;82.38;100602.66;8538100;33;20183;-73
2022/02/22 08:31:45;;;;;;;13.45;4.05;;;;;;;2.94;82.25;100592.41;8534191;33;20470;-73
2022/02/22 08:36:48;;;;;;;17.42;4.10;;;;;;;3.21;82.23;100588.47;8535634;33;20188;-72
2022/02/22 08:41:51;;;;;;;24.23;5.72;;;;;;;3.33;82.62;100592.31;8541785;33;20432;-72
2022/02/22 08:46:56;;;;;;;17.63;4.05;;;;;;;3.32;81.52;100600.34;8552623;33;20344;-73
2022/02/22 08:51:59;;;;;;;17.40;4.80;;;;;;;3.32;81.48;100587.06;8560145;33;20223;-74
2022/02/22 08:57:22;;;;;;;19.55;5.32;;;;;;;3.28;82.22;100592.53;8548024;33;20187;-74
2022/02/22 09:02:26;;;;;;;15.93;3.65;;;;;;;3.49;82.03;100601.28;8544509;33;20455;-75
2022/02/22 09:07:30;;;;;;;13.18;4.18;;;;;;;3.31;82.52;100610.13;8541345;33;20979;-74
2022/02/22 09:12:37;;;;;;;19.98;5.80;;;;;;;3.53;82.94;100596.69;8541409;33;21100;-74
2022/02/22 09:17:44;;;;;;;12.13;3.90;;;;;;;3.31;82.61;100591.53;8539372;33;20237;-74
2022/02/22 09:22:47;;;;;;;23.73;6.43;;;;;;;3.65;81.93;100596.09;8540652;33;20202;-74
2022/02/22 09:27:52;;;;;;;19.95;6.57;;;;;;;4.16;81.34;100598.88;8541072;33;20588;-74
2022/02/22 09:32:56;;;;;;;21.63;3.80;;;;;;;4.00;79.05;100585.50;8540124;33;20423;-74
2022/02/22 09:38:00;;;;;;;20.48;5.38;;;;;;;5.09;77.98;100586.91;8541605;33;22028;-74
2022/02/22 09:43:04;;;;;;;15.90;4.45;;;;;;;4.36;79.14;100587.19;8544937;33;20156;-74
2022/02/22 09:48:10;;;;;;;20.00;4.13;;;;;;;3.96;79.79;100581.28;8546735;33;20278;-74
2022/02/22 09:53:13;;;;;;;15.75;5.40;;;;;;;3.90;80.28;100592.22;8546371;33;22181;-73
2022/02/22 09:58:17;;;;;;;4.72;2.30;;;;;;;4.35;78.31;100580.19;8546940;33;20939;-74
2022/02/22 10:03:22;;;;;;;14.93;5.80;;;;;;;4.66;77.68;100555.47;8546178;33;20472;-75
2022/02/22 10:08:27;;;;;;;20.02;4.72;;;;;;;5.35;75.42;100556.16;8545223;33;20128;-74
2022/02/22 10:13:31;;;;;;;13.90;3.42;;;;;;;5.41;74.11;100556.69;8546330;33;21119;-74
2022/02/22 10:18:46;;;;;;;19.75;4.88;;;;;;;5.68;73.93;100556.06;8545772;33;20198;-73
2022/02/22 10:23:49;;;;;;;12.32;4.95;;;;;;;4.90;74.12;100565.72;8544229;33;20618;-73
2022/02/22 10:28:52;;;;;;;7.80;3.65;;;;;;;5.01;75.58;100558.06;8535383;33;20441;-73
2022/02/22 10:33:57;;;;;;;20.25;7.38;;;;;;;5.61;74.50;100552.88;8534718;33;20222;-74
2022/02/22 10:39:14;;;;;;;9.35;3.25;;;;;;;5.09;75.65;100544.31;8526979;33;20426;-74
2022/02/22 10:44:29;;;;;;;19.05;5.15;;;;;;;5.24;74.93;100564.78;8537123;33;20418;-74
2022/02/22 10:49:37;;;;;;;9.90;3.60;;;;;;;5.38;74.51;100566.66;8537844;33;20186;-74
2022/02/22 10:54:42;;;;;;;18.17;4.70;;;;;;;5.30;74.61;100566.25;8511957;33;20155;-73
2022/02/22 10:59:48;;;;;;;6.82;3.28;;;;;;;5.27;75.25;100568.13;8528559;33;20436;-74
2022/02/22 11:04:55;;;;;;;10.70;4.05;;;;;;;5.64;73.93;100563.34;8515969;33;20498;-74
2022/02/22 11:10:00;;;;;;;16.02;5.40;;;;;;;5.59;74.59;100548.56;8486478;33;21295;-74
2022/02/22 11:15:08;;;;;;;8.88;3.97;;;;;;;5.43;74.21;100557.47;8526847;33;20236;-74
2022/02/22 11:20:27;;;;;;;9.23;4.60;;;;;;;5.69;72.47;100549.78;8506845;33;20658;-74
2022/02/22 11:25:33;;;;;;;14.85;6.40;;;;;;;5.91;72.14;100528.91;8512566;33;20171;-73
2022/02/22 11:30:39;;;;;;;10.32;3.67;;;;;;;5.38;71.12;100511.56;8507486;33;20420;-74
2022/02/22 11:35:49;;;;;;;13.05;4.20;;;;;;;5.15;70.13;100496.88;8513374;33;20668;-73
2022/02/22 11:40:53;;;;;;;14.38;4.18;;;;;;;5.37;69.38;100467.22;8516592;33;20188;-74
2022/02/22 11:46:09;;;;;;;13.00;4.20;;;;;;;5.83;67.45;100458.31;8488491;33;20401;-74
2022/02/22 11:51:15;;;;;;;8.52;3.35;;;;;;;5.97;67.61;100460.16;8480975;33;20261;-74
2022/02/22 11:56:25;;;;;;;8.95;3.22;;;;;;;5.79;67.41;100459.44;8511867;33;20441;-74
2022/02/22 12:01:30;;;;;;;14.55;3.72;;;;;;;5.98;67.85;100440.53;8503928;33;20534;-74
2022/02/22 12:06:45;;;;;;;13.13;3.63;;;;;;;5.50;66.78;100435.41;8514404;33;20868;-73
2022/02/22 12:11:49;;;;;;;11.70;4.03;;;;;;;5.85;67.11;100414.63;8520531;33;20191;-73
2022/02/22 12:16:52;;;;;;;14.68;3.78;;;;;;;5.65;66.48;100410.50;8537176;33;20175;-74
2022/02/22 12:21:56;;;;;;;5.35;2.78;;;;;;;5.71;67.06;100399.47;8520483;33;20128;-73
2022/02/22 12:27:11;;;;;;;7.90;4.00;;;;;;;5.59;67.45;100397.53;8512516;33;21938;-73
2022/02/22 12:32:14;;;;;;;10.65;3.42;;;;;;;5.73;66.94;100391.38;8552452;33;21323;-73
2022/02/22 12:37:19;;;;;;;11.75;2.63;;;;;;;5.70;67.98;100423.53;8532349;33;20505;-73
2022/02/22 12:42:22;;;;;;;2.38;2.17;;;;;;;5.64;68.14;100405.25;8521944;33;20175;-73
2022/02/22 12:47:33;;;;;;;9.02;4.57;;;;;;;5.73;68.39;100383.38;8518596;33;20153;-73
2022/02/22 12:52:38;;;;;;;6.97;3.47;;;;;;;6.43;66.29;100354.13;8519310;33;20473;-73
2022/02/22 12:57:53;;;;;;;11.25;3.10;;;;;;;6.72;66.10;100348.69;8517663;33;20128;-74
2022/02/22 13:03:14;;;;;;;13.00;4.57;;;;;;;6.42;68.41;100331.06;8519977;33;20456;-74
2022/02/22 13:08:20;;;;;;;8.52;3.97;;;;;;;6.01;68.86;100296.38;8518554;33;21008;-74
2022/02/22 13:13:25;;;;;;;6.25;2.85;;;;;;;5.96;69.69;100296.66;8520193;33;20310;-74
2022/02/22 13:18:28;;;;;;;6.70;2.80;;;;;;;5.99;71.53;100312.44;8519674;33;20536;-74
2022/02/22 13:23:34;;;;;;;13.98;4.32;;;;;;;6.04;72.05;100302.34;8525562;33;20276;-74
2022/02/22 13:28:40;;;;;;;11.00;3.92;;;;;;;6.14;71.24;100299.94;8555123;33;20908;-73
2022/02/22 13:33:44;;;;;;;13.63;4.28;;;;;;;6.06;73.10;100296.91;8528191;33;20487;-73
2022/02/22 13:38:57;;;;;;;18.48;6.38;;;;;;;5.92;76.27;100303.13;8537467;33;20242;-73
2022/02/22 13:44:00;;;;;;;10.30;4.22;;;;;;;5.44;80.04;100284.75;8526837;33;20538;-73
2022/02/22 13:49:14;;;;;;;9.65;4.15;;;;;;;5.04;85.20;100280.97;8495819;33;20413;-73
2022/02/22 13:54:24;;;;;;;17.60;4.53;;;;;;;4.90;87.41;100262.28;8546970;33;20424;-73
2022/02/22 13:59:35;;;;;;;11.98;6.30;;;;;;;4.94;87.24;100255.84;8557411;33;20148;-75
2022/02/22 14:04:39;;;;;;;12.68;3.90;;;;;;;5.04;87.55;100249.88;8557509;33;20426;-75
2022/02/22 14:09:44;;;;;;;12.38;5.78;;;;;;;5.20;87.91;100248.97;8559741;33;20427;-74
2022/02/22 14:14:47;;;;;;;17.90;6.20;;;;;;;4.98;88.40;100249.38;8548906;33;20148;-75
2022/02/22 14:19:50;;;;;;;12.25;5.45;;;;;;;4.98;89.44;100234.25;8543617;33;20433;-75
2022/02/22 14:24:55;;;;;;;18.40;7.85;;;;;;;4.74;90.71;100227.72;8542096;33;20426;-76
2022/02/22 14:29:58;;;;;;;13.20;5.15;;;;;;;4.25;93.07;100218.16;8540191;33;20183;-76
2022/02/22 14:35:01;;;;;;;15.73;6.63;;;;;;;4.34;93.10;100212.31;8540868;33;20243;-75
2022/02/22 14:40:07;;;;;;;13.00;5.07;;;;;;;4.59;92.10;100187.78;8539681;33;21465;-74
2022/02/22 14:45:15;;;;;;;8.20;4.55;;;;;;;4.46;92.97;100185.94;8537233;33;20430;-74
2022/02/22 14:50:21;;;;;;;18.23;7.15;;;;;;;4.68;91.78;100199.69;8538705;33;20188;-74
2022/02/22 14:55:25;;;;;;;17.48;5.60;;;;;;;4.48;92.17;100181.38;8515382;33;20181;-74
2022/02/22 15:00:29;;;;;;;14.10;5.97;;;;;;;4.56;92.26;100185.31;8494030;33;20836;-74
2022/02/22 15:05:36;;;;;;;15.10;5.28;;;;;;;4.42;92.77;100181.75;8485363;33;21874;-75
2022/02/22 15:10:43;;;;;;;8.73;3.15;;;;;;;4.66;92.07;100193.56;8479515;33;20251;-76
2022/02/22 15:15:46;;;;;;;18.13;6.20;;;;;;;4.64;92.15;100206.13;8539266;33;20184;-75
2022/02/22 15:20:49;;;;;;;12.18;5.38;;;;;;;4.84;91.76;100154.38;8492381;33;20467;-74
2022/02/22 15:25:54;;;;;;;16.92;6.03;;;;;;;4.82;91.52;100156.28;8528833;33;21059;-74
2022/02/22 15:31:05;;;;;;;18.38;7.32;;;;;;;4.96;90.97;100134.97;8486228;33;20175;-74
2022/02/22 15:36:08;;;;;;;11.90;5.90;;;;;;;5.18;89.06;100134.53;8484276;33;20543;-75
2022/02/22 15:41:13;;;;;;;11.90;5.32;;;;;;;4.81;91.34;100123.47;8526922;33;20425;-75
2022/02/22 15:46:16;;;;;;;13.40;5.32;;;;;;;4.84;91.98;100103.81;8510902;33;20346;-75
2022/02/22 15:51:20;;;;;;;17.30;7.03;;;;;;;5.12;91.48;100092.31;8515315;33;20400;-75
2022/02/22 15:56:24;;;;;;;7.45;3.63;;;;;;;5.08;91.10;100085.50;8518043;33;20349;-74
2022/02/22 16:01:32;;;;;;;10.50;5.63;;;;;;;5.19;90.36;100072.34;8519520;33;20287;-75
2022/02/22 16:06:35;;;;;;;9.95;4.72;;;;;;;4.96;91.38;100079.06;8517210;33;20472;-75
2022/02/22 16:11:40;;;;;;;10.13;4.78;;;;;;;5.28;90.02;100049.59;8504276;33;20868;-75
2022/02/22 16:16:44;;;;;;;8.45;4.85;;;;;;;5.21;90.21;100050.94;8494445;33;20688;-75
2022/02/22 16:21:48;;;;;;;6.82;4.30;;;;;;;5.30;89.58;100057.50;8493160;33;21554;-75
2022/02/22 16:26:52;;;;;;;10.05;4.47;;;;;;;5.25;89.64;100050.66;8497417;33;20145;-75
2022/02/22 16:31:58;;;;;;;10.80;5.53;;;;;;;5.42;89.72;100041.56;8493525;33;21081;-75
2022/02/22 16:37:01;;;;;;;18.75;5.55;;;;;;;5.64;89.11;100037.50;8492041;33;20416;-75
2022/02/22 16:42:06;;;;;;;16.75;7.72;;;;;;;5.66;89.56;100040.94;8492287;33;20984;-75
2022/02/22 16:47:10;;;;;;;13.88;7.20;;;;;;;5.32;91.85;100021.84;8491798;33;20932;-75
2022/02/22 16:52:13;;;;;;;13.88;7.88;;;;;;;5.57;92.24;100030.84;8491524;33;20842;-74
2022/02/22 16:57:17;;;;;;;15.50;7.90;;;;;;;5.53;92.34;100022.22;8491646;33;20266;-75
2022/02/22 17:02:20;;;;;;;13.77;6.80;;;;;;;5.61;92.54;100014.56;8498295;33;20188;-76
2022/02/22 17:07:26;;;;;;;21.20;8.50;;;;;;;5.55;93.03;100006.16;8514979;33;21173;-76
2022/02/22 17:12:30;;;;;;;12.68;6.50;;;;;;;5.38;93.63;100012.59;8504425;33;20533;-77
2022/02/22 17:17:33;;;;;;;15.43;5.80;;;;;;;5.52;93.65;100014.34;8509463;33;20544;-77
2022/02/22 17:22:37;;;;;;;10.13;5.75;;;;;;;5.50;94.35;100022.44;8511715;33;20394;-77
2022/02/22 17:27:42;;;;;;;13.40;6.85;;;;;;;5.56;94.87;99999.84;8511714;33;20913;-75
2022/02/22 17:32:45;;;;;;;15.38;7.93;;;;;;;5.53;94.91;99997.41;8513641;33;20542;-77
2022/02/22 17:37:48;;;;;;;20.02;9.98;;;;;;;5.75;94.76;99984.34;8509484;33;20466;-78
2022/02/22 17:42:53;;;;;;;20.60;7.40;;;;;;;5.66;95.52;99990.28;8515822;33;20414;-77
2022/02/22 17:47:56;;;;;;;24.17;11.70;;;;;;;5.94;95.11;99987.47;8507017;33;20130;-77
2022/02/22 17:53:00;;;;;;;22.02;9.27;;;;;;;5.81;95.73;99973.25;8500986;33;20407;-76
2022/02/22 17:58:04;;;;;;;17.48;8.82;;;;;;;5.70;97.13;99973.13;8492570;33;20846;-74
2022/02/22 18:03:07;;;;;;;22.75;9.82;;;;;;;5.85;96.55;99956.13;8501529;33;20549;-75
2022/02/22 18:08:10;;;;;;;1.48;1.40;;;;;;;5.88;96.84;99966.56;8491056;33;20536;-76
2022/02/22 18:13:14;;;;;;;1.10;1.10;;;;;;;5.70;97.63;99943.81;8487883;33;20335;-76
2022/02/22 18:18:17;;;;;;;0.93;0.93;;;;;;;5.82;98.55;99974.13;8510384;33;20414;-76
2022/02/22 18:23:20;;;;;;;0.50;0.50;;;;;;;5.98;97.48;99972.13;8501947;33;20409;-76
2022/02/22 18:28:25;;;;;;;2.30;2.20;;;;;;;6.09;97.83;99934.91;8489035;33;20423;-75
2022/02/22 18:33:28;;;;;;;1.20;1.20;;;;;;;5.91;98.64;99950.34;8489456;33;20163;-75
2022/02/22 18:38:31;;;;;;;0.80;0.80;;;;;;;6.06;98.25;99948.47;8487814;33;20152;-74
2022/02/22 18:43:35;;;;;;;0.65;0.65;;;;;;;6.12;97.98;99955.19;8490914;33;20831;-76
2022/02/22 18:48:39;;;;;;;0.63;0.63;;;;;;;6.14;98.66;99959.47;8493532;33;20413;-75
2022/02/22 18:53:47;;;;;;;25.98;13.90;;;;;;;6.16;98.32;99943.31;8489629;33;20933;-76
2022/02/22 18:58:53;;;;;;;1.95;1.85;;;;;;;6.08;98.73;99983.00;8487305;33;20451;-77
2022/02/22 19:03:56;;;;;;;1.10;1.10;;;;;;;6.38;97.85;99975.53;8491301;33;20489;-78
2022/02/22 19:08:59;;;;;;;1.35;1.35;;;;;;;6.13;98.72;99996.88;8491175;33;20511;-76
2022/02/22 19:14:05;;;;;;;1.48;1.38;;;;;;;6.38;98.02;100010.22;8496498;33;20951;-77
2022/02/22 19:19:08;;;;;;;0.70;0.70;;;;;;;6.21;99.13;100020.38;8496501;33;20940;-78
2022/02/22 19:24:12;;;;;;;1.52;0.98;;;;;;;6.36;98.83;100046.84;8567152;33;20504;-77
2022/02/22 19:29:17;;;;;;;0.63;0.63;;;;;;;6.13;98.40;100074.22;8612938;33;20143;-76
2022/02/22 19:34:20;;;;;;;0.93;0.93;;;;;;;6.14;97.58;100074.13;8606901;33;20488;-77
2022/02/22 19:39:24;;;;;;;0.47;0.47;;;;;;;6.30;96.52;100086.41;8607037;33;20968;-77
2022/02/22 19:44:28;;;;;;;0.90;0.90;;;;;;;6.11;95.61;100113.47;8606227;33;20933;-76
2022/02/22 19:49:31;;;;;;;0.82;0.82;;;;;;;5.63;95.22;100111.28;8605117;33;21883;-77
2022/02/22 19:54:38;;;;;;;0.60;0.60;;;;;;;5.60;93.80;100134.59;8582889;33;20415;-76
2022/02/22 19:59:43;;;;;;;1.10;1.10;;;;;;;5.98;92.67;100157.88;8595987;33;20933;-75
2022/02/22 20:04:48;;;;;;;1.52;1.33;;;;;;;6.21;92.70;100177.72;8596806;33;20186;-76
2022/02/22 20:09:51;;;;;;;12.75;4.47;;;;;;;6.04;92.31;100187.69;8598002;33;20425;-75
2022/02/22 20:14:56;;;;;;;11.68;4.97;;;;;;;5.84;91.08;100202.31;8602568;33;20456;-76
2022/02/22 20:19:59;;;;;;;13.25;4.32;;;;;;;6.11;91.52;100212.13;8600584;33;20132;-77
2022/02/22 20:25:02;;;;;;;10.80;4.10;;;;;;;5.88;90.95;100216.31;8601407;33;20183;-76
2022/02/22 20:30:08;;;;;;;13.43;4.07;;;;;;;5.80;90.99;100227.44;8575812;33;20438;-75
2022/02/22 20:35:12;;;;;;;15.27;3.50;;;;;;;5.31;88.29;100254.50;8608907;33;20420;-76
2022/02/22 20:40:15;;;;;;;11.35;5.03;;;;;;;5.32;88.66;100277.53;8621738;33;20983;-77
2022/02/22 20:45:19;;;;;;;8.57;3.03;;;;;;;4.88;86.31;100288.97;8620289;33;20170;-77
2022/02/22 20:50:22;;;;;;;11.02;2.90;;;;;;;4.97;87.33;100322.22;8627112;33;20434;-77
2022/02/22 20:55:26;;;;;;;7.22;2.70;;;;;;;5.12;87.54;100342.63;8623269;33;20447;-76
2022/02/22 21:00:30;;;;;;;15.02;3.42;;;;;;;4.87;86.74;100355.63;8628102;33;20235;-75
2022/02/22 21:05:34;;;;;;;10.35;3.97;;;;;;;4.86;87.43;100360.09;8630806;33;20412;-77
2022/02/22 21:10:40;;;;;;;7.30;3.47;;;;;;;4.53;87.59;100369.03;8629887;33;20475;-76
2022/02/22 21:15:45;;;;;;;10.82;3.08;;;;;;;4.45;86.99;100400.53;8603711;33;20484;-76
2022/02/22 21:20:50;;;;;;;15.23;3.80;;;;;;;4.35;86.59;100394.84;8626605;33;20493;-77
2022/02/22 21:25:55;;;;;;;8.20;3.10;;;;;;;4.44;86.67;100425.41;8584109;33;20403;-76
2022/02/22 21:30:59;;;;;;;6.55;2.20;;;;;;;4.32;85.57;100421.63;8555324;33;20218;-77
2022/02/22 21:36:04;;;;;;;8.35;3.33;;;;;;;4.32;85.46;100429.59;8557256;33;20205;-76
2022/02/22 21:41:07;;;;;;;15.13;3.33;;;;;;;3.83;85.57;100461.44;8555199;33;20190;-76
2022/02/22 21:46:11;;;;;;;12.25;2.45;;;;;;;4.09;84.64;100465.41;8560860;33;20156;-75
2022/02/22 21:51:14;;;;;;;8.55;2.97;;;;;;;4.24;84.28;100477.03;8555791;33;20525;-77
2022/02/22 21:56:18;;;;;;;13.77;3.28;;;;;;;4.11;84.37;100491.91;8551437;33;20436;-77
2022/02/22 22:01:22;;;;;;;12.52;3.50;;;;;;;4.15;84.16;100512.06;8558040;33;20215;-76
2022/02/22 22:06:25;;;;;;;11.93;3.42;;;;;;;3.89;84.62;100527.56;8558534;33;20414;-77
2022/02/22 22:11:28;;;;;;;10.13;3.00;;;;;;;4.20;83.72;100533.09;8556928;33;22244;-76
2022/02/22 22:16:33;;;;;;;12.35;3.08;;;;;;;3.97;84.55;100537.81;8550337;33;20926;-77
2022/02/22 22:21:36;;;;;;;12.27;3.55;;;;;;;3.89;84.74;100534.66;8539309;33;20230;-76
2022/02/22 22:26:39;;;;;;;12.43;3.53;;;;;;;3.88;85.59;100556.88;8516028;33;20187;-74
2022/02/22 22:31:44;;;;;;;11.80;3.10;;;;;;;3.73;85.91;100569.16;8527007;33;21159;-76
2022/02/22 22:36:46;;;;;;;15.88;4.28;;;;;;;3.76;86.40;100579.63;8518045;33;20418;-76
2022/02/22 22:41:50;;;;;;;11.48;3.22;;;;;;;3.78;85.89;100587.50;8535446;33;20488;-75
2022/02/22 22:46:54;;;;;;;12.77;3.88;;;;;;;3.64;85.88;100594.34;8518494;33;20164;-76
2022/02/22 22:51:57;;;;;;;9.45;2.78;;;;;;;3.48;86.09;100596.03;8514174;33;20451;-76
2022/02/22 22:57:00;;;;;;;15.13;3.25;;;;;;;3.62;85.19;100628.13;8522567;33;20420;-76
2022/02/22 23:02:06;;;;;;;15.55;5.28;;;;;;;3.59;84.95;100635.34;8502362;33;21349;-76
2022/02/22 23:17:52;;;;;;;11.77;3.50;;;;;;;3.46;84.30;100659.00;8516177;33;21277;-74
2022/02/22 23:22:55;;;;;;;10.07;3.33;;;;;;;3.63;83.83;100669.69;8519391;33;20148;-75
2022/02/22 23:27:58;;;;;;;10.45;2.88;;;;;;;3.46;83.95;100672.28;8510879;33;20149;-75
2022/02/22 23:33:02;;;;;;;14.00;4.10;;;;;;;3.47;84.13;100680.16;8519586;33;20195;-76
2022/02/22 23:38:06;;;;;;;15.05;4.03;;;;;;;3.55;83.56;100678.97;8511951;33;20539;-77
2022/02/22 23:43:09;;;;;;;9.13;2.60;;;;;;;3.48;83.26;100694.31;8517146;33;20408;-76
2022/02/22 23:48:14;;;;;;;6.05;3.17;;;;;;;3.55;83.42;100689.59;8517787;33;20480;-76
2022/02/22 23:53:18;;;;;;;11.02;3.22;;;;;;;3.61;82.93;100708.75;8516985;33;20592;-77